New Orleans, Louisiana
Current Conditions -  °F | °C
As of 10:35 AM on Friday 19 Dec 2014 (Local Time) from KVSH Reporting Station
Overcast Overcast  
Wind Chill: 55°   Ceiling: 3400
Heat Index: 55°   Visibility: 10mi
Dew Point: 48°   Wind: 7mph
Humidity: 77%   Direction: 50°NE
Pressure: 30.12"   Gusts: NA
Location:  29.95°N, 90.08°W
Report Text: KVSH 191635Z AUTO 05006KT 10SM FEW010 BKN034 OVC070 13/09 A3012 RMK AO1
Loading
Personal Weather Stations






























Interactive Weather Map New forecast layout! Learn more

10-Day Weather Forecast

Advertisements
Track Severe Weather on mobile